Terminal Aerodrome Forecast
Issued by NWS Jackson, MS

Home | Current Version | Previous Version | Text Only | Print | Product List | Glossary On
Versions: 1 2 3 4 5 6 7 8 9 10 11 12 13
000
FTUS44 KJAN 251720
TAFMEI
TAF
KMEI 251720Z 2518/2618 17009KT P6SM BKN250
     FM260000 17004KT P6SM FEW250
     FM261000 19002KT 5SM BR BKN005
     FM261300 18002KT 4SM BR SCT005 OVC020
     FM261500 19005KT P6SM BKN100=

USA.gov is the U.S. government's official web portal to all federal, state and local government web resources and services.